Brownhelm, Ohio
Current Conditions -  °F | °C
As of 10:53 AM on Saturday 22 Nov 2014 (Local Time) from KLPR Reporting Station
Overcast Overcast  
Wind Chill: 28°   Ceiling: 4400
Heat Index: 37°   Visibility: 7mi
Dew Point: 35°   Wind: 14mph
Humidity: 93%   Direction: 210°SSW
Pressure: 30.16"   Gusts: NA
Location:  41.3705°N, 82.2583°W
Report Text: KLPR 221553Z AUTO 21012KT 7SM OVC044 03/02 A3016 RMK AO2 UPB42E52 SLP222 P0000 T00280017 TSNO
Loading
Personal Weather Stations






























Interactive Weather Map New forecast layout! Learn more

10-Day Weather Forecast

Advertisements
Track Severe Weather on mobile